Terminal Aerodrome Forecast
Issued by NWS

Home | Current Version | Previous Version | Text Only | Print | Product List | Glossary On
Versions: 1 2 3 4 5 6 7 8 9 10 11 12 13 14
357
FTUS44 KEPZ 192339
TAFDMN
TAF
KDMN 192339Z 2000/2024 23025G35KT P6SM VCSH SCT060 SCT100 BKN250
     FM200100 25018G25KT P6SM VCSH SCT050 BKN120
     FM200600 26020G32KT P6SM VCSH BKN050 BKN250
     FM201000 26012G22KT P6SM SCT070 SCT120 BKN250=

USA.gov is the U.S. government's official web portal to all federal, state and local government web resources and services.